Terminal Aerodrome Forecast
Issued by NWS

Home | Current Version | Previous Version | Text Only | Print | Product List | Glossary On
Versions: 1 2 3 4 5 6 7 8 9 10 11 12 13 14 15 16 17 18
068
FTUS43 KGRR 211416 AAA
TAFJXN
TAF AMD
KJXN 211416Z 2114/2212 15005KT 1SM BR OVC002
     FM211700 18005KT 3/4SM BR OVC002
     FM220400 15005KT 1/2SM FG OVC002
     FM221000 14006KT 1SM BR OVC007=

USA.gov is the U.S. government's official web portal to all federal, state and local government web resources and services.